Terminal Aerodrome Forecast
Issued by NWS Greer, SC

Home | Current Version | Previous Version | Text Only | Print | Product List | Glossary On
Versions: 1 2 3 4 5 6 7 8 9 10 11 12 13 14 15 16 17 18 19
000
FTUS42 KGSP 240526
TAFGSP
TAF
KGSP 240526Z 2406/2506 00000KT P6SM FEW250
     FM241100 21004KT 5SM BR BKN040
     FM241300 21005KT 2SM BR BKN009
     FM241400 22006KT 4SM BR BKN025
     FM241700 22010KT P6SM BKN035
     FM242100 20010KT P6SM SCT070=

USA.gov is the U.S. government's official web portal to all federal, state and local government web resources and services.